Time;durP1;ratioP1;P1;durP2;ratioP2;P2;SDS_P1;SDS_P2;PMS_P1;PMS_P2;Temp;Humidity;BMP_temperature;BMP_pressure;BME280_temperature;BME280_humidity;BME280_pressure;Samples;Min_cycle;Max_cycle;Signal;HPM_P1;HPM_P2
2021/06/01 00:02:00;;;;;;;3.50;3.20;;;19.10;52.40;;;;;;6014663;23;20470;-82
2021/06/01 00:04:27;;;;;;;3.33;3.03;;;19.00;52.50;;;;;;6015400;23;20447;-82
2021/06/01 00:06:54;;;;;;;3.03;2.83;;;19.10;52.60;;;;;;6011228;23;20411;-82
2021/06/01 00:09:22;;;;;;;3.77;3.47;;;19.20;52.20;;;;;;6010530;23;20411;-84
2021/06/01 00:11:50;;;;;;;9.53;3.73;;;19.10;51.90;;;;;;6010037;23;20427;-81
2021/06/01 00:14:17;;;;;;;2.60;2.40;;;19.00;51.50;;;;;;6010223;23;20426;-82
2021/06/01 00:16:46;;;;;;;3.43;3.10;;;18.80;51.90;;;;;;5982029;23;20415;-82
2021/06/01 00:19:13;;;;;;;2.67;2.47;;;19.00;52.40;;;;;;6007987;23;20422;-83
2021/06/01 00:21:40;;;;;;;3.00;2.80;;;19.00;51.90;;;;;;6009996;23;20443;-83
2021/06/01 00:24:07;;;;;;;3.57;3.00;;;18.90;52.20;;;;;;6009602;23;20447;-82
2021/06/01 00:26:36;;;;;;;3.20;2.90;;;18.80;52.80;;;;;;5988088;23;20407;-81
2021/06/01 00:29:03;;;;;;;3.37;3.07;;;18.70;53.20;;;;;;5986222;23;20415;-80
2021/06/01 00:31:30;;;;;;;3.37;3.07;;;18.70;53.10;;;;;;6011779;23;20462;-82
2021/06/01 00:33:57;;;;;;;5.70;2.93;;;18.70;52.80;;;;;;6010944;23;20430;-80
2021/06/01 00:36:24;;;;;;;6.53;2.83;;;18.60;52.60;;;;;;6022092;23;20754;-82
2021/06/01 00:38:50;;;;;;;3.30;2.83;;;18.50;52.50;;;;;;6031305;23;20495;-82
2021/06/01 00:41:17;;;;;;;5.87;2.83;;;18.60;52.30;;;;;;6030124;23;20880;-81
2021/06/01 00:43:44;;;;;;;4.40;2.87;;;18.50;52.40;;;;;;6030949;23;20450;-81
2021/06/01 00:46:11;;;;;;;3.13;2.77;;;18.30;52.70;;;;;;6007036;23;20474;-81
2021/06/01 00:48:38;;;;;;;2.97;2.67;;;18.30;52.90;;;;;;6031120;23;20419;-83
2021/06/01 00:51:05;;;;;;;3.47;2.73;;;18.20;53.00;;;;;;6031476;23;20535;-83
2021/06/01 00:53:33;;;;;;;2.73;2.53;;;18.20;53.00;;;;;;6031418;23;20462;-83
2021/06/01 00:56:00;;;;;;;2.87;2.63;;;18.10;53.20;;;;;;6029976;23;20404;-83
2021/06/01 00:58:26;;;;;;;5.93;2.70;;;18.10;53.40;;;;;;6031321;23;20447;-83
2021/06/01 01:03:37;;;;;;;4.70;2.87;;;18.40;52.90;;;;;;6030284;23;20479;-82
2021/06/01 01:06:19;;;;;;;3.07;2.73;;;18.40;53.00;;;;;;6029108;23;20419;-82
2021/06/01 01:11:31;;;;;;;3.07;2.77;;;18.20;54.10;;;;;;6029984;23;20449;-83
2021/06/01 01:14:03;;;;;;;4.53;2.93;;;18.20;54.50;;;;;;5986058;23;20819;-82
2021/06/01 01:16:31;;;;;;;3.00;2.70;;;18.20;54.60;;;;;;5980676;23;20399;-82
2021/06/01 01:19:05;;;;;;;3.30;2.50;;;18.20;54.60;;;;;;6004392;23;20548;-82
2021/06/01 01:21:42;;;;;;;3.30;3.00;;;18.10;54.70;;;;;;5996963;23;20529;-83
2021/06/01 01:24:15;;;;;;;4.50;2.60;;;18.10;55.00;;;;;;6003642;23;20431;-82
2021/06/01 01:27:09;;;;;;;3.17;2.87;;;18.10;55.00;;;;;;6005014;23;20418;-82
2021/06/01 01:29:44;;;;;;;4.10;3.10;;;18.10;55.00;;;;;;6004361;23;20435;-82
2021/06/01 01:32:36;;;;;;;3.33;3.03;;;18.00;55.30;;;;;;6003592;23;20411;-83
2021/06/01 01:35:05;;;;;;;3.47;2.90;;;17.90;55.20;;;;;;6003895;23;20400;-81
2021/06/01 01:37:33;;;;;;;3.07;2.80;;;18.10;55.00;;;;;;6004276;23;20422;-81
2021/06/01 01:40:01;;;;;;;2.57;2.30;;;18.10;54.80;;;;;;6000774;23;20423;-82
2021/06/01 01:42:37;;;;;;;3.60;3.30;;;18.00;54.90;;;;;;6002802;23;20598;-82
2021/06/01 01:45:08;;;;;;;3.13;2.40;;;18.10;54.80;;;;;;6002780;23;20415;-83
2021/06/01 01:50:05;;;;;;;3.03;2.70;;;17.90;54.60;;;;;;6001958;23;20422;-82
2021/06/01 01:52:36;;;;;;;2.73;2.40;;;17.80;54.80;;;;;;6002569;23;20430;-82
2021/06/01 01:55:09;;;;;;;4.13;2.63;;;17.70;54.80;;;;;;6003949;23;21285;-82
2021/06/01 01:57:37;;;;;;;2.73;2.53;;;17.60;54.80;;;;;;6002344;23;20427;-82
2021/06/01 02:00:09;;;;;;;4.13;2.80;;;17.60;54.90;;;;;;6008571;23;20432;-82
2021/06/01 02:02:37;;;;;;;2.60;2.40;;;17.50;55.10;;;;;;6006190;23;20428;-83
2021/06/01 02:05:08;;;;;;;4.63;2.50;;;17.40;55.50;;;;;;6024963;23;20446;-82
2021/06/01 02:07:35;;;;;;;3.10;2.90;;;17.50;55.60;;;;;;6025355;23;20482;-81
2021/06/01 02:10:08;;;;;;;4.10;2.67;;;17.50;55.40;;;;;;6001565;23;20428;-82
2021/06/01 02:12:35;;;;;;;6.23;2.83;;;17.40;55.60;;;;;;6024716;23;20420;-83
2021/06/01 02:15:04;;;;;;;3.30;3.00;;;17.40;55.80;;;;;;6028067;23;20449;-82
2021/06/01 02:17:31;;;;;;;5.43;3.27;;;17.50;56.00;;;;;;6012461;23;20507;-81
2021/06/01 02:19:58;;;;;;;3.27;2.97;;;17.60;56.40;;;;;;6015062;23;20423;-82
2021/06/01 02:25:32;;;;;;;3.77;2.97;;;17.30;56.70;;;;;;5973981;23;20411;-81
2021/06/01 02:28:25;;;;;;;4.57;2.83;;;17.40;57.20;;;;;;6011557;23;20410;-83
2021/06/01 02:31:07;;;;;;;3.40;3.20;;;17.30;57.00;;;;;;6006691;23;20437;-83
2021/06/01 02:33:36;;;;;;;3.10;2.90;;;17.30;57.30;;;;;;6004720;23;20475;-83
2021/06/01 02:36:05;;;;;;;4.07;3.67;;;17.30;57.20;;;;;;6010038;23;20435;-84
2021/06/01 02:38:33;;;;;;;3.87;3.57;;;17.40;57.70;;;;;;5980547;23;20879;-83
2021/06/01 02:41:03;;;;;;;3.40;3.20;;;17.40;58.70;;;;;;6005693;23;20435;-83
2021/06/01 02:43:30;;;;;;;3.57;3.27;;;17.40;58.40;;;;;;6007434;23;20430;-82
2021/06/01 02:45:57;;;;;;;4.00;3.13;;;17.30;58.90;;;;;;6005212;23;20408;-83
2021/06/01 02:48:25;;;;;;;3.50;3.30;;;17.50;58.70;;;;;;6003983;23;20411;-81
2021/06/01 02:50:54;;;;;;;5.03;3.80;;;17.20;58.80;;;;;;6003092;23;20439;-82
2021/06/01 02:53:22;;;;;;;3.60;3.30;;;17.20;59.10;;;;;;5978552;23;20419;-82
2021/06/01 02:55:49;;;;;;;4.50;3.30;;;17.20;59.90;;;;;;6003888;23;20418;-83
2021/06/01 02:58:17;;;;;;;6.40;3.30;;;17.20;61.10;;;;;;5977927;23;20427;-83
2021/06/01 03:00:45;;;;;;;3.10;2.90;;;17.30;60.70;;;;;;5978957;23;20438;-81
2021/06/01 03:03:13;;;;;;;3.80;3.33;;;17.50;59.10;;;;;;6002648;23;20411;-83
2021/06/01 03:05:41;;;;;;;3.50;3.17;;;17.30;58.80;;;;;;6004245;23;20411;-82
2021/06/01 03:08:19;;;;;;;3.93;3.00;;;17.10;59.10;;;;;;6002342;23;20417;-82
2021/06/01 03:10:45;;;;;;;4.30;2.83;;;17.20;60.30;;;;;;6002299;23;20435;-82
2021/06/01 03:13:12;;;;;;;4.20;3.10;;;17.20;59.80;;;;;;6002824;23;20431;-82
2021/06/01 03:15:39;;;;;;;4.00;3.40;;;17.00;60.40;;;;;;6002887;23;20439;-83
2021/06/01 03:18:06;;;;;;;4.80;3.40;;;16.90;61.10;;;;;;6002608;23;20505;-81
2021/06/01 03:20:32;;;;;;;4.17;3.10;;;17.10;62.20;;;;;;6003092;23;20443;-82
2021/06/01 03:22:59;;;;;;;3.93;3.63;;;17.00;61.00;;;;;;6003777;23;20894;-82
2021/06/01 03:25:26;;;;;;;4.93;3.10;;;16.80;62.80;;;;;;6004133;23;20615;-82
2021/06/01 03:27:53;;;;;;;3.90;3.30;;;16.70;63.70;;;;;;5979311;23;20413;-83
2021/06/01 03:30:20;;;;;;;4.90;3.77;;;16.60;63.80;;;;;;5978921;23;20434;-82
2021/06/01 03:32:46;;;;;;;3.93;3.63;;;16.80;62.40;;;;;;6002042;23;20431;-82
2021/06/01 03:35:13;;;;;;;7.07;3.57;;;16.70;61.50;;;;;;6001852;23;21363;-82
2021/06/01 03:37:40;;;;;;;4.47;3.70;;;16.70;61.50;;;;;;6003416;23;20900;-83
2021/06/01 03:40:07;;;;;;;7.43;3.83;;;16.80;61.10;;;;;;6003333;23;20431;-83
2021/06/01 03:42:34;;;;;;;4.67;3.47;;;16.90;60.10;;;;;;6002576;23;20840;-83
2021/06/01 03:45:01;;;;;;;3.47;3.20;;;16.80;60.50;;;;;;5978843;23;20447;-82
2021/06/01 03:47:27;;;;;;;3.70;3.30;;;16.70;61.10;;;;;;6001896;23;20415;-82
2021/06/01 03:49:55;;;;;;;6.53;3.70;;;16.80;60.70;;;;;;6003770;23;20403;-83
2021/06/01 03:52:21;;;;;;;8.53;3.67;;;16.80;60.60;;;;;;6004109;23;20415;-82
2021/06/01 03:54:48;;;;;;;7.10;3.80;;;17.00;60.30;;;;;;6004241;23;20407;-83
2021/06/01 03:57:15;;;;;;;6.83;3.83;;;16.90;59.90;;;;;;6005474;23;20420;-83
2021/06/01 03:59:41;;;;;;;7.00;4.00;;;16.90;60.40;;;;;;6006108;23;20407;-82
2021/06/01 04:02:08;;;;;;;10.70;5.80;;;16.70;60.50;;;;;;6005577;23;20864;-82
2021/06/01 04:04:35;;;;;;;16.10;5.93;;;16.60;60.90;;;;;;6005624;23;20461;-83
2021/06/01 04:07:04;;;;;;;9.20;4.20;;;16.60;60.80;;;;;;6006233;23;20415;-82
2021/06/01 04:09:31;;;;;;;6.77;4.30;;;16.70;60.30;;;;;;5980939;23;20411;-82
2021/06/01 04:11:58;;;;;;;6.10;3.60;;;16.60;60.30;;;;;;6005994;23;20438;-83
2021/06/01 04:14:27;;;;;;;4.40;3.27;;;16.40;61.00;;;;;;6018581;23;20422;-81
2021/06/01 04:16:57;;;;;;;4.07;3.60;;;16.50;61.20;;;;;;6026775;23;20404;-81
2021/06/01 04:19:24;;;;;;;6.53;3.23;;;16.40;62.30;;;;;;6027348;23;20407;-81
2021/06/01 04:21:52;;;;;;;4.50;3.70;;;16.50;61.90;;;;;;6025214;23;20440;-81
2021/06/01 04:24:20;;;;;;;3.60;3.27;;;16.60;62.20;;;;;;6007845;23;20541;-82
2021/06/01 04:26:47;;;;;;;5.23;3.80;;;16.60;63.20;;;;;;5982563;23;20438;-81
2021/06/01 04:29:13;;;;;;;4.30;3.40;;;16.50;63.90;;;;;;6005934;23;21003;-82
2021/06/01 04:31:41;;;;;;;5.10;4.70;;;16.50;64.80;;;;;;5980546;23;20443;-82
2021/06/01 04:34:08;;;;;;;7.27;3.97;;;16.50;65.30;;;;;;6004900;23;20424;-82
2021/06/01 04:36:35;;;;;;;9.07;4.37;;;16.70;64.80;;;;;;6007018;23;20431;-83
2021/06/01 04:39:02;;;;;;;7.00;5.03;;;16.70;64.30;;;;;;5981324;23;20435;-81
2021/06/01 04:41:28;;;;;;;8.60;5.40;;;16.90;63.30;;;;;;6005622;23;20455;-81
2021/06/01 04:43:55;;;;;;;4.57;3.90;;;17.10;63.10;;;;;;6007417;23;20478;-81
2021/06/01 04:46:22;;;;;;;6.60;3.77;;;17.00;61.80;;;;;;6015281;23;20486;-80
2021/06/01 04:48:48;;;;;;;5.37;3.50;;;16.90;62.00;;;;;;6009623;23;20438;-83
2021/06/01 04:51:18;;;;;;;5.27;4.20;;;16.80;61.70;;;;;;5980527;23;20443;-83
2021/06/01 04:53:54;;;;;;;4.07;3.67;;;16.90;62.60;;;;;;6005405;23;20407;-82
2021/06/01 04:56:22;;;;;;;8.53;3.73;;;16.90;61.70;;;;;;6008267;23;20415;-81
2021/06/01 04:58:52;;;;;;;4.10;3.70;;;16.90;61.70;;;;;;6005742;23;20392;-83
2021/06/01 05:01:18;;;;;;;3.60;3.40;;;16.80;61.90;;;;;;6007319;23;20442;-82
2021/06/01 05:03:45;;;;;;;5.10;3.80;;;16.90;61.60;;;;;;6006421;23;20486;-81
2021/06/01 05:06:12;;;;;;;5.20;3.70;;;17.00;61.20;;;;;;5983065;23;20414;-81
2021/06/01 05:08:38;;;;;;;6.10;3.60;;;17.00;61.70;;;;;;6005557;23;20744;-82
2021/06/01 05:11:05;;;;;;;5.90;4.60;;;17.00;61.70;;;;;;6007870;23;21168;-82
2021/06/01 05:13:32;;;;;;;4.57;4.10;;;16.90;61.20;;;;;;6005951;23;20426;-83
2021/06/01 05:15:58;;;;;;;9.10;4.37;;;17.00;61.70;;;;;;6007596;23;21237;-83
2021/06/01 05:18:25;;;;;;;5.07;3.53;;;17.00;61.70;;;;;;6009707;23;20755;-83
2021/06/01 05:21:03;;;;;;;7.50;3.10;;;17.00;61.60;;;;;;6008042;23;20470;-83
2021/06/01 05:23:30;;;;;;;4.70;3.43;;;16.90;62.10;;;;;;6009228;23;20429;-81
2021/06/01 05:25:57;;;;;;;5.60;3.20;;;16.80;62.50;;;;;;6008810;23;20503;-83
2021/06/01 05:28:24;;;;;;;3.43;3.10;;;16.90;62.40;;;;;;6010517;23;20455;-82
2021/06/01 05:33:37;;;;;;;4.03;3.67;;;17.00;62.10;;;;;;6016903;23;20375;-81
2021/06/01 05:36:04;;;;;;;3.70;3.33;;;16.90;61.90;;;;;;6023356;23;20458;-82
2021/06/01 05:38:32;;;;;;;3.93;3.50;;;16.90;62.10;;;;;;6021328;23;20440;-82
2021/06/01 05:41:01;;;;;;;3.97;3.57;;;16.90;62.20;;;;;;6023732;23;20481;-82
2021/06/01 05:43:29;;;;;;;3.70;3.10;;;16.90;62.10;;;;;;6014551;23;20419;-83
2021/06/01 05:45:57;;;;;;;4.43;3.97;;;16.90;62.00;;;;;;5982413;23;20514;-82
2021/06/01 05:48:24;;;;;;;3.83;3.27;;;16.90;62.50;;;;;;6004880;23;20506;-82
2021/06/01 05:50:50;;;;;;;5.60;3.43;;;17.00;62.60;;;;;;5982660;23;20535;-82
2021/06/01 05:53:19;;;;;;;6.23;3.63;;;17.00;62.70;;;;;;5983984;23;20417;-82
2021/06/01 05:55:46;;;;;;;5.23;3.70;;;17.10;62.60;;;;;;5982360;23;20502;-82
2021/06/01 05:58:13;;;;;;;5.60;3.50;;;17.20;63.20;;;;;;6007188;23;20423;-82
2021/06/01 06:00:40;;;;;;;3.40;3.03;;;17.30;63.00;;;;;;6007259;23;20443;-83
2021/06/01 06:03:07;;;;;;;5.43;3.73;;;17.30;62.60;;;;;;6005557;23;20419;-83
2021/06/01 06:05:34;;;;;;;3.80;3.50;;;17.20;63.30;;;;;;6007288;23;20570;-82
2021/06/01 06:08:08;;;;;;;3.90;3.60;;;17.40;63.20;;;;;;6007629;23;20473;-83
2021/06/01 06:10:36;;;;;;;4.40;3.33;;;17.40;62.70;;;;;;5994493;23;20430;-82
2021/06/01 06:13:04;;;;;;;3.67;3.10;;;17.30;62.90;;;;;;6018308;23;20429;-81
2021/06/01 06:15:31;;;;;;;3.80;3.50;;;17.50;62.20;;;;;;6018657;23;20403;-79
2021/06/01 06:18:17;;;;;;;4.37;3.90;;;17.70;61.70;;;;;;6017602;23;20486;-81
2021/06/01 06:20:44;;;;;;;3.70;3.10;;;17.90;60.30;;;;;;6007935;23;20843;-82
2021/06/01 06:23:12;;;;;;;4.80;3.50;;;17.80;60.20;;;;;;6009581;23;20388;-82
2021/06/01 06:25:39;;;;;;;6.43;3.40;;;17.80;59.50;;;;;;6019942;23;20453;-81
2021/06/01 06:28:05;;;;;;;4.17;2.93;;;17.70;59.60;;;;;;6024707;23;20407;-81
2021/06/01 06:30:32;;;;;;;3.50;3.20;;;17.70;59.70;;;;;;6003318;23;20439;-84
2021/06/01 06:32:59;;;;;;;4.20;3.47;;;17.80;59.60;;;;;;6031485;23;20415;-83
2021/06/01 06:35:26;;;;;;;3.93;3.27;;;17.70;59.40;;;;;;6032711;23;20470;-82
2021/06/01 06:37:53;;;;;;;3.50;3.20;;;17.80;59.40;;;;;;5998193;23;20407;-84
2021/06/01 06:40:20;;;;;;;4.07;3.30;;;17.80;59.80;;;;;;6016024;23;20423;-84
2021/06/01 06:42:47;;;;;;;5.37;3.70;;;18.00;60.20;;;;;;6016888;23;20479;-84
2021/06/01 06:45:16;;;;;;;4.23;3.20;;;17.90;60.20;;;;;;6016099;23;20543;-86
2021/06/01 06:50:22;;;;;;;5.40;3.10;;;18.00;60.80;;;;;;6014229;23;20435;-85
2021/06/01 06:52:52;;;;;;;4.13;3.83;;;18.30;59.90;;;;;;6014310;23;20438;-84
2021/06/01 06:55:20;;;;;;;3.30;3.00;;;18.20;59.70;;;;;;5990086;23;20455;-84
2021/06/01 06:57:47;;;;;;;3.63;3.33;;;18.20;59.90;;;;;;6013550;23;20418;-83
2021/06/01 07:00:20;;;;;;;3.10;2.80;;;18.10;60.60;;;;;;5986794;23;20450;-85
2021/06/01 07:02:58;;;;;;;3.63;3.33;;;18.20;60.80;;;;;;6010352;23;20414;-83
2021/06/01 07:05:24;;;;;;;4.70;3.47;;;18.50;59.80;;;;;;5986634;23;20458;-84
2021/06/01 07:07:53;;;;;;;4.00;3.20;;;18.60;59.80;;;;;;6009872;23;20439;-84
2021/06/01 07:10:21;;;;;;;4.00;3.10;;;18.80;59.70;;;;;;6012618;23;20446;-83
2021/06/01 07:12:48;;;;;;;3.30;3.10;;;18.80;59.30;;;;;;5987384;23;20411;-83
2021/06/01 07:15:22;;;;;;;3.47;3.20;;;19.00;59.30;;;;;;6018465;23;20444;-84
2021/06/01 07:17:54;;;;;;;3.60;3.03;;;18.90;58.70;;;;;;6020298;23;20400;-84
2021/06/01 07:20:21;;;;;;;6.83;3.27;;;19.10;58.80;;;;;;6021859;23;20527;-83
2021/06/01 07:22:47;;;;;;;3.17;2.97;;;18.90;59.00;;;;;;6005841;23;20407;-83
2021/06/01 07:25:14;;;;;;;3.37;3.07;;;19.00;59.00;;;;;;6030282;23;20462;-84
2021/06/01 07:27:41;;;;;;;3.60;3.30;;;19.10;58.90;;;;;;6029407;23;20425;-84
2021/06/01 07:30:09;;;;;;;2.90;2.70;;;19.50;58.40;;;;;;6026424;23;20479;-85
2021/06/01 07:32:36;;;;;;;4.47;3.27;;;19.70;57.70;;;;;;5992828;23;20488;-85
2021/06/01 07:35:03;;;;;;;4.30;3.30;;;19.80;57.00;;;;;;6009399;23;20416;-85
2021/06/01 07:37:30;;;;;;;4.37;3.93;;;19.90;56.90;;;;;;6011661;23;20399;-84
2021/06/01 07:39:57;;;;;;;7.13;3.80;;;19.90;56.70;;;;;;6009287;23;20427;-84
2021/06/01 07:42:24;;;;;;;6.87;3.60;;;20.10;56.60;;;;;;6010761;23;20415;-83
2021/06/01 07:44:50;;;;;;;6.63;3.30;;;20.20;56.40;;;;;;6011785;23;20446;-84
2021/06/01 07:47:17;;;;;;;3.90;3.60;;;20.30;56.30;;;;;;6011579;23;20899;-85
2021/06/01 07:49:44;;;;;;;3.43;3.17;;;20.20;55.90;;;;;;6013984;23;21311;-84
2021/06/01 07:52:11;;;;;;;3.40;3.20;;;20.10;56.40;;;;;;5992015;23;20487;-84
2021/06/01 07:54:38;;;;;;;3.83;3.30;;;20.20;56.20;;;;;;6017595;23;20487;-84
2021/06/01 07:57:05;;;;;;;3.30;3.00;;;20.50;56.30;;;;;;6014656;23;20419;-85
2021/06/01 07:59:32;;;;;;;3.60;3.30;;;20.80;55.50;;;;;;6010644;23;20415;-84
2021/06/01 08:01:58;;;;;;;3.53;3.23;;;20.90;55.50;;;;;;6011935;23;20443;-83
2021/06/01 08:04:25;;;;;;;4.47;3.10;;;21.00;55.10;;;;;;6009401;23;20449;-83
2021/06/01 08:06:52;;;;;;;3.40;3.10;;;21.20;55.40;;;;;;5987608;23;20498;-83
2021/06/01 08:09:18;;;;;;;3.17;2.83;;;21.20;54.00;;;;;;5989653;23;20411;-83
2021/06/01 08:11:45;;;;;;;2.97;2.77;;;21.40;53.20;;;;;;6016728;23;20445;-84
2021/06/01 08:14:16;;;;;;;3.03;2.73;;;21.50;53.20;;;;;;6013528;23;21016;-84
2021/06/01 08:16:46;;;;;;;4.93;3.10;;;21.50;53.80;;;;;;5990062;23;20855;-82
2021/06/01 08:19:18;;;;;;;5.10;2.80;;;21.90;53.10;;;;;;6013162;23;20471;-83
2021/06/01 08:24:18;;;;;;;3.33;3.13;;;21.00;53.60;;;;;;6012938;23;20607;-84
2021/06/01 08:26:45;;;;;;;3.20;3.00;;;21.90;53.60;;;;;;5986526;23;20486;-82
2021/06/01 08:29:15;;;;;;;3.77;2.83;;;23.10;52.60;;;;;;6014044;23;20423;-83
2021/06/01 08:31:47;;;;;;;3.30;3.10;;;23.10;50.30;;;;;;6015513;23;21117;-85
2021/06/01 08:34:21;;;;;;;3.43;2.97;;;23.50;49.20;;;;;;6013687;23;20422;-82
2021/06/01 08:43:35;;;;;;;3.93;3.30;;;22.70;49.70;;;;;;6011815;23;20437;-83
2021/06/01 08:46:02;;;;;;;2.30;2.20;;;23.50;47.60;;;;;;6011901;23;20481;-85
2021/06/01 08:48:31;;;;;;;3.13;2.83;;;24.90;46.10;;;;;;6012576;23;20476;-84
2021/06/01 08:50:58;;;;;;;3.00;2.70;;;25.00;44.40;;;;;;6013196;23;21379;-85
2021/06/01 08:53:27;;;;;;;4.03;2.90;;;24.40;44.50;;;;;;5987958;23;20479;-83
2021/06/01 08:55:57;;;;;;;3.13;2.60;;;24.70;45.00;;;;;;5987612;23;20419;-84
2021/06/01 08:58:26;;;;;;;4.10;3.00;;;26.20;40.80;;;;;;6013641;23;20529;-84
2021/06/01 09:05:21;;;;;;;4.90;2.40;;;26.80;38.30;;;;;;5953264;24;20926;-84
2021/06/01 09:08:30;;;;;;;4.47;2.57;;;27.60;37.50;;;;;;5983830;24;20435;-84
2021/06/01 09:23:02;;;;;;;2.53;2.30;;;28.00;34.60;;;;;;6101489;23;20407;-83
2021/06/01 09:27:59;;;;;;;3.07;2.13;;;29.60;32.40;;;;;;6098715;23;20415;-82
2021/06/01 09:30:44;;;;;;;2.20;2.10;;;29.40;31.90;;;;;;6105903;23;20761;-84
2021/06/01 09:33:14;;;;;;;2.60;2.40;;;29.40;31.50;;;;;;6104770;23;20417;-84
2021/06/01 09:35:53;;;;;;;2.43;2.20;;;29.10;31.90;;;;;;6101776;23;20424;-84
2021/06/01 09:38:23;;;;;;;2.60;2.40;;;30.00;31.50;;;;;;6099105;23;20381;-83
2021/06/01 09:41:12;;;;;;;2.90;2.70;;;31.40;30.00;;;;;;6096193;23;20464;-84
2021/06/01 09:43:57;;;;;;;2.90;2.47;;;31.50;29.60;;;;;;6095495;23;20464;-85
2021/06/01 09:46:26;;;;;;;2.43;2.00;;;30.00;30.00;;;;;;6101948;23;20440;-83
2021/06/01 09:49:16;;;;;;;5.27;2.50;;;30.20;30.60;;;;;;6099998;23;20413;-85
2021/06/01 09:51:53;;;;;;;2.53;2.33;;;29.80;30.90;;;;;;6100049;23;20444;-85
2021/06/01 09:54:35;;;;;;;2.13;2.03;;;30.20;31.10;;;;;;6099918;23;20423;-86
2021/06/01 09:57:17;;;;;;;2.77;2.53;;;31.20;30.20;;;;;;6101365;23;20420;-82
2021/06/01 10:00:12;;;;;;;2.53;2.37;;;30.90;30.20;;;;;;6103823;23;20423;-85
2021/06/01 10:02:45;;;;;;;2.50;2.30;;;31.60;29.50;;;;;;6104319;23;20416;-85
2021/06/01 10:17:34;;;;;;;2.77;2.57;;;29.80;30.60;;;;;;5820416;24;20478;-84
2021/06/01 10:27:39;;;;;;;2.70;2.50;;;31.60;29.90;;;;;;5819414;24;20414;-84
2021/06/01 10:48:43;;;;;;;3.97;2.40;;;30.90;30.00;;;;;;6008366;23;20396;-84
2021/06/01 10:54:07;;;;;;;5.93;2.90;;;31.30;29.90;;;;;;6008785;23;20510;-84
2021/06/01 10:56:57;;;;;;;4.13;2.77;;;31.40;29.80;;;;;;5887380;24;20394;-85
2021/06/01 11:12:48;;;;;;;2.87;2.20;;;30.90;29.00;;;;;;6086433;23;20496;-82
2021/06/01 11:15:52;;;;;;;2.37;2.20;;;30.70;29.30;;;;;;6072049;23;20873;-82
2021/06/01 11:18:43;;;;;;;1.90;1.80;;;30.30;29.00;;;;;;6072541;23;20416;-83
2021/06/01 11:36:18;;;;;;;3.63;2.13;;;31.40;28.40;;;;;;6069927;23;20473;-84
2021/06/01 11:39:00;;;;;;;5.10;2.60;;;30.70;28.50;;;;;;6069994;23;20420;-84
2021/06/01 11:44:30;;;;;;;2.33;2.00;;;30.90;28.50;;;;;;6065508;23;20569;-85
2021/06/01 11:47:52;;;;;;;;;;;;;;;;;;;;;
2021/06/01 11:51:44;;;;;;;2.73;2.40;;;30.50;29.60;;;;;;6031793;23;20498;-85
2021/06/01 12:21:13;;;;;;;2.93;2.70;;;29.70;29.10;;;;;;5871604;24;20435;-85
2021/06/01 13:56:25;;;;;;;4.90;2.50;;;27.90;32.00;;;;;;6124943;23;20411;-83
2021/06/01 15:11:13;;;;;;;2.60;2.40;;;27.70;31.80;;;;;;6162612;23;20430;-84
2021/06/01 15:50:19;;;;;;;2.40;2.20;;;27.50;31.40;;;;;;6157079;23;20415;-83
2021/06/01 15:53:42;;;;;;;3.73;2.10;;;27.60;31.60;;;;;;6131966;23;20399;-85
2021/06/01 16:11:44;;;;;;;2.10;2.00;;;27.30;33.00;;;;;;6156469;23;20910;-85
2021/06/01 17:03:11;;;;;;;2.83;2.63;;;27.00;34.30;;;;;;6165084;23;20414;-83
2021/06/01 17:06:27;;;;;;;3.43;2.30;;;27.00;35.60;;;;;;6177077;23;20403;-86
2021/06/01 17:11:49;;;;;;;3.00;2.80;;;27.00;35.40;;;;;;6174952;23;20423;-85
2021/06/01 17:14:21;;;;;;;4.77;3.50;;;27.10;35.10;;;;;;6147892;23;20401;-86
2021/06/01 17:16:51;;;;;;;2.83;2.53;;;27.00;35.30;;;;;;6173052;23;20397;-86
2021/06/01 17:36:00;;;;;;;3.60;2.90;;;26.70;35.70;;;;;;6163232;23;20386;-84
2021/06/01 17:38:28;;;;;;;3.23;2.93;;;26.90;35.60;;;;;;6161084;23;20419;-84
2021/06/01 17:40:58;;;;;;;4.13;3.10;;;26.90;35.60;;;;;;6153560;23;20438;-84
2021/06/01 17:43:34;;;;;;;3.63;2.43;;;26.90;35.60;;;;;;6129273;23;20406;-84
2021/06/01 17:46:06;;;;;;;3.00;2.70;;;26.90;35.60;;;;;;6127534;23;20866;-83
2021/06/01 17:51:05;;;;;;;3.23;2.53;;;26.50;35.70;;;;;;6155065;23;20814;-84
2021/06/01 17:53:42;;;;;;;2.60;2.40;;;26.50;35.80;;;;;;6156571;23;20391;-84
2021/06/01 17:56:13;;;;;;;7.10;2.77;;;26.60;35.80;;;;;;6154925;23;20395;-83
2021/06/01 17:58:41;;;;;;;2.10;2.00;;;26.60;35.40;;;;;;6154819;23;20449;-84
2021/06/01 18:01:08;;;;;;;2.87;2.67;;;26.60;35.30;;;;;;6129558;23;20457;-83
2021/06/01 18:03:43;;;;;;;2.17;1.97;;;26.60;35.20;;;;;;6158861;23;20406;-83
2021/06/01 18:06:11;;;;;;;2.87;2.67;;;26.50;35.30;;;;;;6131871;23;20383;-85
2021/06/01 18:08:55;;;;;;;2.70;2.50;;;26.40;35.20;;;;;;6130529;23;20499;-86
2021/06/01 19:06:32;;;;;;;7.27;5.67;;;25.70;37.90;;;;;;6159126;23;20414;-84
2021/06/01 19:25:36;;;;;;;3.87;2.97;;;25.40;38.70;;;;;;6164142;23;20407;-85
2021/06/01 19:50:23;;;;;;;4.63;2.80;;;24.90;40.10;;;;;;6158082;23;20702;-85
2021/06/01 19:52:54;;;;;;;3.80;2.63;;;25.00;40.50;;;;;;6161998;23;20411;-86
2021/06/01 19:55:24;;;;;;;3.03;2.83;;;24.90;40.50;;;;;;6145627;23;20406;-82
2021/06/01 19:57:52;;;;;;;6.20;2.93;;;24.90;40.90;;;;;;6173227;23;20415;-86
2021/06/01 20:00:21;;;;;;;3.60;3.30;;;24.90;40.70;;;;;;6146746;23;20950;-85
2021/06/01 20:02:49;;;;;;;3.43;3.23;;;25.00;41.00;;;;;;6139904;23;20411;-85
2021/06/01 20:05:33;;;;;;;3.60;3.23;;;24.80;40.90;;;;;;6157969;23;20410;-85
2021/06/01 20:08:01;;;;;;;3.40;3.10;;;24.80;41.30;;;;;;6130635;23;20558;-86
2021/06/01 20:10:28;;;;;;;3.17;2.87;;;24.70;41.30;;;;;;6156573;23;20466;-85
2021/06/01 20:12:58;;;;;;;4.73;3.27;;;24.80;41.20;;;;;;6157721;23;20893;-84
2021/06/01 20:15:31;;;;;;;3.27;3.07;;;24.60;41.20;;;;;;6158728;23;20414;-83
2021/06/01 20:18:02;;;;;;;3.43;2.90;;;24.60;41.40;;;;;;6132672;23;20399;-85
2021/06/01 20:20:31;;;;;;;3.23;3.03;;;24.50;41.00;;;;;;6133494;23;20447;-86
2021/06/01 20:23:03;;;;;;;3.07;2.87;;;24.40;41.30;;;;;;6134773;23;20635;-86
2021/06/01 20:25:47;;;;;;;3.40;3.20;;;24.40;42.10;;;;;;6139024;23;20403;-86
2021/06/01 20:28:21;;;;;;;2.70;2.50;;;24.40;42.10;;;;;;6137655;23;20434;-86
2021/06/01 20:30:52;;;;;;;4.87;2.50;;;24.40;42.30;;;;;;6145600;23;20443;-86
2021/06/01 20:33:20;;;;;;;3.70;3.30;;;24.30;42.50;;;;;;6148129;23;20395;-85
2021/06/01 20:35:50;;;;;;;3.30;3.10;;;24.30;42.60;;;;;;6144853;23;20463;-83
2021/06/01 20:38:22;;;;;;;3.40;3.10;;;24.20;42.70;;;;;;6139939;23;20406;-83
2021/06/01 20:40:50;;;;;;;5.10;3.63;;;24.20;42.90;;;;;;6133760;23;20474;-84
2021/06/01 20:43:18;;;;;;;4.07;3.50;;;24.30;42.60;;;;;;6163825;23;20817;-82
2021/06/01 20:45:46;;;;;;;4.23;2.80;;;24.20;42.80;;;;;;6170094;23;20426;-84
2021/06/01 20:48:16;;;;;;;3.47;3.27;;;24.20;42.90;;;;;;6148713;23;20417;-85
2021/06/01 20:50:45;;;;;;;6.37;4.10;;;24.10;43.20;;;;;;6147927;23;20419;-85
2021/06/01 20:53:13;;;;;;;4.43;3.70;;;24.10;43.50;;;;;;6147728;23;20398;-85
2021/06/01 20:55:43;;;;;;;6.70;6.00;;;24.00;43.90;;;;;;6144116;23;20413;-83
2021/06/01 20:58:20;;;;;;;4.73;4.27;;;24.00;44.10;;;;;;6157814;23;20403;-85
2021/06/01 21:00:52;;;;;;;5.80;5.30;;;24.00;44.30;;;;;;6154411;23;20521;-82
2021/06/01 21:03:22;;;;;;;5.10;4.67;;;24.00;44.30;;;;;;6154725;23;20540;-84
2021/06/01 21:06:21;;;;;;;7.43;6.73;;;23.90;44.30;;;;;;6154508;23;21056;-85
2021/06/01 21:09:09;;;;;;;5.07;3.87;;;24.00;44.30;;;;;;6155518;23;20411;-85
2021/06/01 21:11:39;;;;;;;4.27;3.90;;;24.00;43.70;;;;;;6156334;23;21024;-83
2021/06/01 21:14:12;;;;;;;5.60;4.00;;;23.90;43.50;;;;;;6131849;23;20486;-85
2021/06/01 21:16:39;;;;;;;6.30;4.07;;;23.80;43.60;;;;;;6157413;23;20415;-85
2021/06/01 21:19:08;;;;;;;4.60;4.20;;;23.70;43.90;;;;;;6132838;23;20749;-84
2021/06/01 21:21:40;;;;;;;3.73;3.43;;;23.60;44.30;;;;;;6159726;23;20490;-85
2021/06/01 21:24:09;;;;;;;3.43;3.23;;;23.40;44.40;;;;;;6156447;23;20442;-84
2021/06/01 21:26:36;;;;;;;3.97;3.67;;;23.30;44.50;;;;;;6132550;23;20427;-83
2021/06/01 21:29:05;;;;;;;4.77;4.00;;;23.30;44.80;;;;;;6156082;23;20415;-85
2021/06/01 21:31:49;;;;;;;4.07;3.57;;;23.20;45.10;;;;;;6153609;23;20458;-85
2021/06/01 21:34:21;;;;;;;4.30;3.90;;;23.00;45.40;;;;;;6131929;23;20387;-84
2021/06/01 21:37:01;;;;;;;4.60;4.30;;;22.80;45.80;;;;;;6155548;23;20452;-85
2021/06/01 21:39:37;;;;;;;5.73;5.33;;;22.80;46.10;;;;;;6132069;23;20410;-85
2021/06/01 21:42:05;;;;;;;4.30;4.00;;;22.80;46.20;;;;;;6130810;23;20423;-84
2021/06/01 21:44:56;;;;;;;4.30;4.00;;;22.70;46.40;;;;;;6155713;23;20526;-83
2021/06/01 21:47:26;;;;;;;4.10;3.70;;;22.60;46.80;;;;;;6154188;23;20399;-84
2021/06/01 21:50:01;;;;;;;4.30;3.90;;;22.50;47.00;;;;;;6155498;23;20502;-83
2021/06/01 21:52:34;;;;;;;4.50;4.10;;;22.50;47.90;;;;;;6156341;23;21285;-86
2021/06/01 21:55:08;;;;;;;4.20;3.80;;;22.40;47.50;;;;;;6154374;23;20418;-84